createdAt,value
2022-08-17T00:00:05.725Z,57.15
2022-08-17T00:03:04.514Z,52.72
2022-08-17T00:05:38.069Z,57.42
2022-08-17T00:08:05.339Z,61.15
2022-08-17T00:10:32.623Z,58.85
2022-08-17T00:13:00.650Z,59.28
2022-08-17T00:15:27.704Z,57.22
2022-08-17T00:17:54.661Z,59.95
2022-08-17T00:20:23.390Z,61.20
2022-08-17T00:23:16.029Z,59.13
2022-08-17T00:25:47.250Z,60.97
2022-08-17T00:28:16.199Z,63.97
2022-08-17T00:30:52.821Z,63.75
2022-08-17T00:33:25.464Z,70.25
2022-08-17T00:35:53.396Z,69.68
2022-08-17T00:38:21.079Z,68.10
2022-08-17T00:40:52.666Z,67.55
2022-08-17T00:43:30.408Z,72.00
2022-08-17T00:45:58.666Z,77.68
2022-08-17T00:48:30.189Z,72.50
2022-08-17T00:51:14.476Z,75.10
2022-08-17T00:53:45.204Z,80.65
2022-08-17T00:56:18.593Z,73.53
2022-08-17T00:58:45.665Z,78.25
2022-08-17T01:01:21.994Z,73.30
2022-08-17T01:03:52.563Z,72.93
2022-08-17T01:06:23.996Z,83.90
2022-08-17T01:08:57.517Z,83.72
2022-08-17T01:11:25.732Z,80.97
2022-08-17T01:13:52.776Z,87.43
2022-08-17T01:16:24.858Z,81.10
2022-08-17T01:18:54.910Z,80.28
2022-08-17T01:21:32.576Z,85.60
2022-08-17T01:24:00.586Z,84.53
2022-08-17T01:26:30.088Z,83.10
2022-08-17T01:28:57.185Z,89.15
2022-08-17T01:31:28.718Z,84.95
2022-08-17T01:33:58.289Z,82.25
2022-08-17T01:36:25.216Z,79.85
2022-08-17T01:38:52.090Z,80.30
2022-08-17T01:41:21.783Z,87.00
2022-08-17T01:43:56.843Z,88.30
2022-08-17T01:46:28.124Z,90.15
2022-08-17T01:48:57.553Z,89.00
2022-08-17T01:51:32.959Z,88.97
2022-08-17T01:54:06.578Z,82.93
2022-08-17T01:56:36.751Z,79.97
2022-08-17T01:59:04.618Z,69.43
2022-08-17T02:01:33.778Z,60.17
2022-08-17T02:04:02.164Z,54.80
2022-08-17T02:06:45.337Z,54.47
2022-08-17T02:09:19.242Z,49.58
2022-08-17T02:11:50.423Z,51.28
2022-08-17T02:14:18.208Z,49.85
2022-08-17T02:16:45.143Z,49.58
2022-08-17T02:19:15.871Z,51.13
2022-08-17T02:21:47.837Z,49.40
2022-08-17T02:25:00.358Z,52.05
2022-08-17T02:27:15.022Z,53.22
2022-08-17T02:29:41.870Z,58.80
2022-08-17T02:32:27.871Z,63.55
2022-08-17T02:34:59.273Z,68.25
2022-08-17T02:37:27.590Z,67.13
2022-08-17T02:39:57.143Z,65.35
2022-08-17T02:42:33.947Z,61.65
2022-08-17T02:47:28.907Z,59.25
2022-08-17T02:49:56.196Z,57.17
2022-08-17T02:52:42.684Z,52.30
2022-08-17T02:55:18.244Z,54.92
2022-08-17T02:57:45.631Z,52.30
2022-08-17T03:00:19.787Z,49.80
2022-08-17T03:02:47.017Z,47.70
2022-08-17T03:05:17.181Z,47.72
2022-08-17T03:07:44.255Z,48.45
2022-08-17T03:10:11.785Z,48.38
2022-08-17T03:12:41.664Z,47.65
2022-08-17T03:15:12.851Z,46.15
2022-08-17T03:17:39.815Z,46.65
2022-08-17T03:20:08.532Z,46.08
2022-08-17T03:22:41.247Z,46.85
2022-08-17T03:25:19.468Z,47.17
2022-08-17T03:27:50.283Z,46.60
2022-08-17T03:30:18.544Z,44.22
2022-08-17T03:32:50.452Z,43.63
2022-08-17T03:35:20.974Z,44.08
2022-08-17T03:37:47.890Z,53.83
2022-08-17T03:40:55.607Z,62.58
2022-08-17T03:43:16.063Z,78.57
2022-08-17T03:46:02.581Z,96.65
2022-08-17T03:48:48.452Z,95.70
2022-08-17T03:54:28.809Z,91.38
2022-08-17T03:57:08.694Z,75.25
2022-08-17T03:59:36.935Z,62.05
2022-08-17T04:02:26.185Z,67.35
2022-08-17T04:04:54.192Z,72.95
2022-08-17T04:07:23.621Z,64.07
2022-08-17T04:09:50.820Z,55.03
2022-08-17T04:12:19.916Z,53.10
2022-08-17T04:14:53.029Z,57.10
2022-08-17T04:17:27.519Z,51.47
2022-08-17T04:19:55.564Z,50.53
2022-08-17T04:22:30.997Z,34.72
2022-08-17T04:25:16.845Z,31.75
2022-08-17T04:27:43.867Z,37.22
2022-08-17T04:30:11.410Z,52.40
2022-08-17T04:33:05.915Z,56.88
2022-08-17T04:35:39.886Z,56.07
2022-08-17T04:38:25.193Z,46.00
2022-08-17T04:41:11.102Z,82.53
2022-08-17T04:46:09.619Z,85.43
2022-08-17T04:48:40.156Z,89.93
2022-08-17T04:51:11.278Z,89.80
2022-08-17T04:53:40.180Z,94.90
2022-08-17T04:56:07.329Z,98.07
2022-08-17T04:58:34.283Z,107.82
2022-08-17T05:01:01.689Z,105.18
2022-08-17T05:03:28.784Z,108.68
2022-08-17T05:05:55.799Z,109.07
2022-08-17T05:08:22.748Z,110.22
2022-08-17T05:10:50.186Z,110.07
2022-08-17T05:13:20.966Z,110.28
2022-08-17T05:15:49.597Z,114.22
2022-08-17T05:18:17.473Z,105.18
2022-08-17T05:20:44.406Z,114.25
2022-08-17T05:23:13.998Z,109.90
2022-08-17T05:25:44.118Z,106.85
2022-08-17T05:28:16.148Z,101.43
2022-08-17T05:30:44.045Z,106.13
2022-08-17T05:33:13.995Z,102.43
2022-08-17T05:35:47.991Z,100.20
2022-08-17T05:38:16.818Z,96.20
2022-08-17T05:40:44.574Z,90.13
2022-08-17T05:43:15.011Z,85.35
2022-08-17T05:45:55.820Z,80.30
2022-08-17T05:48:35.429Z,70.78
2022-08-17T05:51:22.133Z,64.28
2022-08-17T05:54:08.606Z,47.78
2022-08-17T05:56:47.129Z,39.78
2022-08-17T05:59:35.476Z,39.67
2022-08-17T06:02:44.174Z,37.03
2022-08-17T06:05:37.150Z,35.45
2022-08-17T06:08:23.595Z,34.95
2022-08-17T06:11:06.141Z,33.45
2022-08-17T06:13:48.099Z,33.20
2022-08-17T06:16:33.341Z,30.48
2022-08-17T06:19:15.478Z,34.70
2022-08-17T06:21:46.606Z,34.08
2022-08-17T06:24:38.680Z,34.38
2022-08-17T06:27:35.859Z,32.70
2022-08-17T06:30:16.866Z,33.95
2022-08-17T06:32:48.729Z,32.05
2022-08-17T06:35:22.439Z,29.92
2022-08-17T06:38:36.904Z,31.85
2022-08-17T06:41:21.957Z,30.63
2022-08-17T06:44:47.635Z,30.40
2022-08-17T06:47:13.602Z,30.15
2022-08-17T06:49:55.600Z,28.65
2022-08-17T06:52:46.799Z,28.13
2022-08-17T06:55:40.044Z,28.83
2022-08-17T06:58:16.180Z,29.50
2022-08-17T07:00:47.427Z,29.08
2022-08-17T07:03:38.143Z,27.42
2022-08-17T07:06:14.413Z,27.83
2022-08-17T07:08:55.560Z,27.48
2022-08-17T07:11:47.671Z,26.35
2022-08-17T07:14:33.183Z,24.35
2022-08-17T07:17:06.657Z,24.30
2022-08-17T07:19:36.502Z,23.05
2022-08-17T07:22:03.737Z,22.73
2022-08-17T07:24:37.310Z,22.05
2022-08-17T07:27:11.649Z,23.25
2022-08-17T07:30:10.583Z,21.02
2022-08-17T07:32:45.474Z,21.27
2022-08-17T07:35:21.089Z,19.20
2022-08-17T07:37:54.057Z,19.33
2022-08-17T07:40:23.735Z,18.40
2022-08-17T07:43:23.071Z,17.73
2022-08-17T07:46:09.958Z,16.70
2022-08-17T07:48:39.522Z,15.77
2022-08-17T07:51:25.314Z,16.08
2022-08-17T07:53:54.483Z,14.63
2022-08-17T07:56:41.623Z,14.85
2022-08-17T07:59:13.610Z,17.23
2022-08-17T08:01:45.148Z,15.40
2022-08-17T08:05:00.201Z,15.75
2022-08-17T08:07:26.797Z,14.70
2022-08-17T08:10:05.545Z,16.13
2022-08-17T08:12:43.140Z,15.50
2022-08-17T08:15:12.749Z,16.60
2022-08-17T08:17:56.197Z,16.65
2022-08-17T08:20:51.698Z,16.73
2022-08-17T08:23:57.453Z,16.55
2022-08-17T08:26:33.855Z,17.95
2022-08-17T08:29:31.721Z,17.85
2022-08-17T08:32:29.358Z,17.83
2022-08-17T08:35:31.483Z,19.38
2022-08-17T08:38:16.779Z,19.02
2022-08-17T08:41:21.552Z,20.33
2022-08-17T08:44:00.716Z,19.80
2022-08-17T08:46:53.323Z,21.88
2022-08-17T08:50:03.854Z,21.27
2022-08-17T08:52:50.212Z,20.85
2022-08-17T08:55:23.232Z,19.70
2022-08-17T08:58:33.751Z,21.05
2022-08-17T09:01:17.142Z,20.95
2022-08-17T09:04:24.189Z,20.48
2022-08-17T09:07:13.113Z,19.85
2022-08-17T09:09:49.585Z,21.23
2022-08-17T09:12:33.972Z,21.75
2022-08-17T09:15:20.634Z,20.45
2022-08-17T09:18:30.373Z,20.17
2022-08-17T09:20:59.579Z,20.90
2022-08-17T09:23:36.628Z,21.10
2022-08-17T09:26:17.059Z,20.38
2022-08-17T09:28:53.595Z,21.33
2022-08-17T09:31:48.785Z,23.90
2022-08-17T09:34:21.189Z,25.50
2022-08-17T09:37:03.859Z,25.88
2022-08-17T09:39:41.586Z,27.45
2022-08-17T09:42:14.739Z,29.02
2022-08-17T09:44:52.788Z,32.67
2022-08-17T09:47:40.616Z,32.70
2022-08-17T09:50:13.403Z,34.58
2022-08-17T09:52:42.942Z,38.78
2022-08-17T09:55:10.101Z,37.60
2022-08-17T09:58:14.716Z,39.60
2022-08-17T10:00:54.146Z,40.90
2022-08-17T10:03:49.039Z,41.47
2022-08-17T10:06:30.338Z,43.30
2022-08-17T10:09:14.396Z,43.63
2022-08-17T10:12:17.175Z,43.83
2022-08-17T10:15:07.915Z,46.13
2022-08-17T10:18:08.476Z,43.88
2022-08-17T10:21:32.334Z,43.30
2022-08-17T10:24:34.397Z,43.38
2022-08-17T10:27:04.345Z,40.60
2022-08-17T10:29:48.494Z,39.65
2022-08-17T10:32:35.053Z,36.53
2022-08-17T10:35:29.449Z,36.05
2022-08-17T10:38:33.135Z,33.17
2022-08-17T10:41:02.918Z,34.25
2022-08-17T10:44:37.347Z,35.15
2022-08-17T10:46:57.596Z,35.22
2022-08-17T10:49:29.427Z,35.42
2022-08-17T10:51:59.923Z,35.60
2022-08-17T10:54:41.611Z,37.60
2022-08-17T10:57:34.322Z,37.65
2022-08-17T11:00:02.560Z,35.67
2022-08-17T11:02:49.872Z,38.53
2022-08-17T11:05:46.937Z,37.08
2022-08-17T11:08:39.189Z,35.80
2022-08-17T11:11:38.456Z,39.00
2022-08-17T11:14:41.189Z,39.42
2022-08-17T11:17:45.155Z,39.78
2022-08-17T11:20:21.081Z,39.58
2022-08-17T11:22:48.290Z,42.22
2022-08-17T11:26:04.050Z,42.63
2022-08-17T11:28:52.480Z,43.35
2022-08-17T11:31:38.417Z,45.60
2022-08-17T11:34:28.331Z,44.83
2022-08-17T11:37:04.255Z,44.90
2022-08-17T11:39:34.366Z,47.65
2022-08-17T11:42:38.789Z,45.33
2022-08-17T11:45:33.259Z,44.33
2022-08-17T11:48:30.271Z,45.80
2022-08-17T11:51:32.452Z,45.65
2022-08-17T11:56:52.910Z,41.83
2022-08-17T11:59:36.399Z,42.35
2022-08-17T12:02:31.392Z,46.13
2022-08-17T12:05:17.001Z,45.00
2022-08-17T12:07:48.819Z,45.35
2022-08-17T12:10:21.521Z,47.72
2022-08-17T12:12:53.093Z,47.95
2022-08-17T12:15:35.946Z,48.78
2022-08-17T12:18:03.195Z,44.88
2022-08-17T12:20:32.942Z,44.35
2022-08-17T12:23:24.296Z,43.95
2022-08-17T12:26:08.979Z,42.03
2022-08-17T12:28:38.884Z,41.08
2022-08-17T12:31:26.236Z,37.78
2022-08-17T12:33:54.112Z,34.25
2022-08-17T12:36:28.244Z,34.28
2022-08-17T12:39:14.024Z,31.67
2022-08-17T12:41:44.907Z,29.50
2022-08-17T12:44:12.335Z,28.98
2022-08-17T12:47:19.455Z,26.20
2022-08-17T12:49:51.439Z,27.02
2022-08-17T12:52:28.389Z,24.90
2022-08-17T12:55:02.930Z,24.73
2022-08-17T12:57:37.982Z,25.08
2022-08-17T13:00:21.042Z,24.88
2022-08-17T13:03:16.485Z,23.88
2022-08-17T13:05:56.932Z,24.80
2022-08-17T13:08:36.050Z,25.02
2022-08-17T13:11:08.467Z,26.17
2022-08-17T13:13:38.981Z,26.02
2022-08-17T13:16:12.024Z,25.80
2022-08-17T13:18:52.199Z,25.48
2022-08-17T13:21:19.098Z,27.10
2022-08-17T13:24:13.843Z,27.75
2022-08-17T13:26:54.411Z,28.45
2022-08-17T13:29:29.096Z,30.20
2022-08-17T13:32:12.951Z,29.73
2022-08-17T13:35:12.676Z,31.95
2022-08-17T13:37:36.097Z,31.42
2022-08-17T13:40:09.279Z,30.38
2022-08-17T13:42:52.614Z,30.48
2022-08-17T13:45:36.524Z,32.25
2022-08-17T13:48:13.475Z,33.95
2022-08-17T13:50:56.429Z,33.45
2022-08-17T13:53:27.035Z,33.92
2022-08-17T13:56:01.473Z,32.75
2022-08-17T13:58:35.558Z,33.20
2022-08-17T14:01:41.165Z,31.75
2022-08-17T14:04:20.780Z,30.55
2022-08-17T14:06:57.795Z,29.75
2022-08-17T14:09:37.538Z,29.35
2022-08-17T14:12:12.738Z,30.55
2022-08-17T14:14:40.917Z,30.35
2022-08-17T14:17:07.974Z,31.63
2022-08-17T14:19:35.365Z,32.40
2022-08-17T14:22:02.902Z,32.85
2022-08-17T14:24:34.250Z,30.48
2022-08-17T14:27:03.540Z,28.35
2022-08-17T14:29:32.511Z,27.63
2022-08-17T14:32:05.123Z,26.88
2022-08-17T14:34:32.712Z,25.35
2022-08-17T14:36:59.564Z,23.63
2022-08-17T14:39:26.563Z,22.63
2022-08-17T14:41:53.560Z,21.65
2022-08-17T14:44:20.464Z,21.00
2022-08-17T14:46:49.151Z,18.35
2022-08-17T14:49:16.180Z,18.90
2022-08-17T14:51:43.733Z,20.00
2022-08-17T14:54:33.227Z,18.17
2022-08-17T14:57:23.392Z,17.92
2022-08-17T14:59:52.338Z,19.23
2022-08-17T15:02:30.128Z,18.55
2022-08-17T15:05:06.039Z,18.10
2022-08-17T15:07:32.956Z,18.67
2022-08-17T15:10:01.431Z,17.42
2022-08-17T15:12:33.394Z,18.35
2022-08-17T15:15:01.983Z,18.83
2022-08-17T15:17:44.781Z,18.30
2022-08-17T15:20:19.654Z,19.30
2022-08-17T15:22:49.912Z,17.67
2022-08-17T15:25:19.040Z,16.42
2022-08-17T15:27:46.338Z,18.25
2022-08-17T15:30:13.795Z,18.30
2022-08-17T15:32:51.217Z,18.77
2022-08-17T15:35:27.945Z,17.33
2022-08-17T15:38:10.526Z,16.40
2022-08-17T15:40:44.331Z,14.70
2022-08-17T15:43:27.976Z,15.23
2022-08-17T15:46:18.931Z,15.63
2022-08-17T15:48:51.762Z,15.85
2022-08-17T15:51:24.198Z,15.40
2022-08-17T15:53:54.591Z,16.48
2022-08-17T15:56:21.920Z,16.98
2022-08-17T15:58:49.782Z,16.92
2022-08-17T16:03:01.885Z,17.95
2022-08-17T16:04:14.945Z,16.85
2022-08-17T16:06:53.785Z,16.50
2022-08-17T16:09:20.640Z,17.63
2022-08-17T16:11:53.667Z,16.48
2022-08-17T16:14:20.759Z,15.75
2022-08-17T16:16:47.714Z,16.73
2022-08-17T16:19:14.823Z,17.48
2022-08-17T16:21:42.823Z,18.85
2022-08-17T16:24:13.088Z,19.35
2022-08-17T16:26:42.394Z,18.67
2022-08-17T16:29:09.326Z,18.05
2022-08-17T16:31:37.680Z,18.75
2022-08-17T16:34:17.971Z,17.77
2022-08-17T16:36:55.456Z,18.60
2022-08-17T16:39:29.004Z,19.48
2022-08-17T16:41:57.569Z,19.25
2022-08-17T16:44:27.438Z,19.80
2022-08-17T16:46:54.630Z,18.85
2022-08-17T16:49:27.618Z,18.40
2022-08-17T16:52:07.019Z,17.83
2022-08-17T16:54:35.259Z,19.92
2022-08-17T16:57:04.981Z,19.60
2022-08-17T16:59:40.258Z,21.95
2022-08-17T17:02:15.480Z,23.05
2022-08-17T17:05:14.344Z,23.23
2022-08-17T17:07:50.834Z,24.45
2022-08-17T17:10:22.276Z,25.50
2022-08-17T17:13:03.774Z,26.75
2022-08-17T17:15:57.574Z,27.33
2022-08-17T17:18:41.565Z,27.90
2022-08-17T17:21:16.944Z,23.80
2022-08-17T17:26:53.877Z,19.02
2022-08-17T17:29:23.833Z,13.68
2022-08-17T17:32:17.272Z,12.82
2022-08-17T17:34:50.522Z,10.60
2022-08-17T17:37:24.580Z,9.60
2022-08-17T17:39:58.817Z,8.40
2022-08-17T17:42:28.932Z,8.73
2022-08-17T17:45:31.351Z,6.95
2022-08-17T17:47:58.579Z,6.45
2022-08-17T17:50:37.857Z,6.72
2022-08-17T17:53:12.357Z,7.72
2022-08-17T17:56:06.468Z,7.78
2022-08-17T17:59:12.660Z,8.45
2022-08-17T18:02:03.884Z,8.65
2022-08-17T18:04:47.947Z,9.88
2022-08-17T18:07:22.900Z,10.25
2022-08-17T18:12:40.535Z,13.63
2022-08-17T18:15:29.614Z,14.07
2022-08-17T18:18:23.339Z,14.57
2022-08-17T18:20:53.751Z,14.90
2022-08-17T18:23:28.170Z,14.35
2022-08-17T18:25:56.623Z,13.98
2022-08-17T18:28:28.296Z,14.35
2022-08-17T18:31:18.312Z,13.85
2022-08-17T18:33:49.332Z,14.45
2022-08-17T18:36:36.386Z,15.93
2022-08-17T18:39:28.354Z,15.88
2022-08-17T18:41:57.713Z,16.17
2022-08-17T18:44:29.556Z,16.10
2022-08-17T18:47:11.575Z,16.02
2022-08-17T18:49:38.808Z,15.43
2022-08-17T18:52:17.001Z,15.68
2022-08-17T18:55:08.896Z,14.75
2022-08-17T18:57:44.436Z,13.73
2022-08-17T19:00:18.387Z,14.35
2022-08-17T19:03:20.536Z,15.23
2022-08-17T19:05:50.326Z,13.82
2022-08-17T19:08:28.404Z,13.23
2022-08-17T19:11:23.771Z,13.48
2022-08-17T19:14:06.516Z,13.10
2022-08-17T19:16:50.936Z,12.85
2022-08-17T19:19:34.379Z,12.15
2022-08-17T19:22:17.002Z,10.95
2022-08-17T19:25:16.242Z,12.00
2022-08-17T19:27:57.456Z,11.00
2022-08-17T19:30:25.617Z,11.32
2022-08-17T19:32:53.089Z,10.52
2022-08-17T19:35:24.654Z,11.48
2022-08-17T19:38:13.166Z,10.88
2022-08-17T19:41:15.310Z,10.80
2022-08-17T19:43:57.587Z,11.63
2022-08-17T19:46:59.512Z,11.82
2022-08-17T19:49:46.411Z,11.40
2022-08-17T19:52:34.542Z,11.57
2022-08-17T19:55:09.399Z,10.65
2022-08-17T19:58:17.930Z,10.38
2022-08-17T20:00:51.326Z,12.07
2022-08-17T20:03:47.994Z,16.27
2022-08-17T20:06:15.312Z,17.40
2022-08-17T20:09:03.772Z,20.92
2022-08-17T20:11:38.455Z,20.95
2022-08-17T20:14:13.120Z,19.57
2022-08-17T20:16:40.303Z,20.00
2022-08-17T20:19:30.326Z,19.23
2022-08-17T20:22:29.244Z,16.75
2022-08-17T20:25:06.349Z,16.60
2022-08-17T20:28:05.552Z,18.80
2022-08-17T20:30:37.919Z,19.67
2022-08-17T20:33:08.462Z,20.38
2022-08-17T20:35:59.311Z,20.30
2022-08-17T20:38:44.352Z,22.13
2022-08-17T20:41:17.893Z,18.70
2022-08-17T20:43:52.252Z,19.17
2022-08-17T20:46:37.870Z,17.50
2022-08-17T20:49:44.660Z,17.20
2022-08-17T20:52:15.545Z,16.55
2022-08-17T20:54:48.827Z,16.92
2022-08-17T20:57:34.334Z,16.13
2022-08-17T21:00:18.263Z,15.88
2022-08-17T21:02:50.179Z,16.98
2022-08-17T21:05:46.460Z,18.33
2022-08-17T21:08:29.610Z,17.40
2022-08-17T21:11:00.045Z,16.45
2022-08-17T21:13:40.294Z,17.05
2022-08-17T21:16:38.724Z,15.93
2022-08-17T21:19:54.174Z,16.98
2022-08-17T21:22:51.942Z,18.42
2022-08-17T21:25:21.885Z,18.55
2022-08-17T21:28:29.973Z,20.23
2022-08-17T21:31:08.358Z,20.23
2022-08-17T21:33:40.007Z,21.67
2022-08-17T21:36:12.789Z,23.33
2022-08-17T21:38:42.688Z,20.33
2022-08-17T21:41:19.303Z,21.45
2022-08-17T21:44:05.452Z,19.95
2022-08-17T21:46:37.630Z,20.20
2022-08-17T21:49:13.575Z,20.70
2022-08-17T21:51:54.172Z,19.55
2022-08-17T21:54:38.659Z,20.65
2022-08-17T21:57:14.543Z,20.67
2022-08-17T21:59:43.738Z,20.85
2022-08-17T22:02:19.810Z,20.35
2022-08-17T22:05:16.646Z,20.48
2022-08-17T22:07:46.307Z,20.02
2022-08-17T22:10:30.673Z,21.20
2022-08-17T22:13:17.410Z,20.83
2022-08-17T22:15:53.612Z,21.55
2022-08-17T22:18:27.471Z,22.17
2022-08-17T22:20:57.145Z,22.80
2022-08-17T22:23:47.723Z,23.83
2022-08-17T22:26:16.790Z,26.00
2022-08-17T22:28:53.277Z,24.50
2022-08-17T22:31:22.974Z,26.75
2022-08-17T22:34:09.458Z,28.52
2022-08-17T22:36:39.055Z,26.27
2022-08-17T22:39:08.928Z,30.23
2022-08-17T22:41:50.756Z,28.63
2022-08-17T22:44:20.380Z,27.17
2022-08-17T22:46:59.266Z,28.00
2022-08-17T22:49:29.281Z,25.88
2022-08-17T22:52:06.429Z,27.55
2022-08-17T22:54:52.437Z,26.48
2022-08-17T22:57:57.559Z,26.23
2022-08-17T23:00:45.635Z,26.73
2022-08-17T23:03:19.666Z,31.67
2022-08-17T23:06:08.159Z,32.28
2022-08-17T23:08:48.383Z,31.67
2022-08-17T23:11:15.444Z,30.80
2022-08-17T23:13:42.368Z,32.42
2022-08-17T23:16:09.308Z,32.30
2022-08-17T23:18:37.342Z,30.70
2022-08-17T23:21:05.692Z,32.30
2022-08-17T23:23:33.769Z,29.27
2022-08-17T23:26:01.749Z,32.42
2022-08-17T23:28:28.682Z,36.00
2022-08-17T23:30:56.367Z,33.58
2022-08-17T23:33:30.575Z,35.63
2022-08-17T23:36:00.209Z,34.80
2022-08-17T23:38:27.983Z,34.72
2022-08-17T23:40:56.337Z,36.30
2022-08-17T23:43:25.476Z,35.80
2022-08-17T23:45:57.395Z,33.88
2022-08-17T23:48:35.307Z,33.83
2022-08-17T23:51:08.486Z,34.00
2022-08-17T23:53:36.765Z,36.30
2022-08-17T23:56:10.450Z,27.83
2022-08-17T23:58:42.889Z,22.77
